Time;durP1;ratioP1;P1;durP2;ratioP2;P2;SDS_P1;SDS_P2;PMS_P1;PMS_P2;Temp;Humidity;BMP_temperature;BMP_pressure;BME280_temperature;BME280_humidity;BME280_pressure;Samples;Min_cycle;Max_cycle;Signal;HPM_P1;HPM_P2
2023/06/14 00:01:02;;;;;;;6.88;4.72;;;;;;;19.34;43.94;101309.63;5033214;28;20525;-81
2023/06/14 00:03:28;;;;;;;7.13;4.40;;;;;;;19.28;43.63;101305.53;5031804;28;20052;-81
2023/06/14 00:05:53;;;;;;;5.80;4.30;;;;;;;19.25;43.81;101311.84;5032376;28;20025;-81
2023/06/14 00:08:21;;;;;;;6.35;4.47;;;;;;;19.22;43.51;101312.00;5033023;28;20369;-81
2023/06/14 00:10:46;;;;;;;7.63;4.43;;;;;;;19.15;43.52;101312.44;5033190;28;20079;-81
2023/06/14 00:13:11;;;;;;;6.75;4.32;;;;;;;19.12;42.92;101305.53;5030364;28;20059;-81
2023/06/14 00:15:37;;;;;;;6.38;4.10;;;;;;;19.09;42.87;101310.97;5032787;28;20038;-81
2023/06/14 00:18:04;;;;;;;6.88;4.50;;;;;;;19.07;43.27;101312.84;5031911;28;20057;-81
2023/06/14 00:20:33;;;;;;;6.32;4.63;;;;;;;19.03;42.93;101316.56;5032825;28;20022;-81
2023/06/14 00:23:01;;;;;;;7.43;4.10;;;;;;;18.98;43.40;101316.84;5031432;28;20461;-81
2023/06/14 00:25:27;;;;;;;6.85;4.20;;;;;;;18.95;42.84;101324.91;5031451;28;20037;-81
2023/06/14 00:27:53;;;;;;;6.15;4.30;;;;;;;18.91;43.14;101323.31;5031857;28;20090;-81
2023/06/14 00:30:18;;;;;;;5.75;4.10;;;;;;;18.86;43.00;101320.94;5033194;28;20037;-81
2023/06/14 00:32:44;;;;;;;6.70;3.95;;;;;;;18.83;42.77;101321.09;5029955;28;20140;-81
2023/06/14 00:35:10;;;;;;;4.75;3.78;;;;;;;18.78;42.98;101323.16;5030895;28;20037;-81
2023/06/14 00:37:36;;;;;;;6.57;3.90;;;;;;;18.75;43.51;101323.28;5032324;28;20033;-81
2023/06/14 00:40:02;;;;;;;6.55;3.75;;;;;;;18.70;44.72;101323.53;5032436;28;20017;-81
2023/06/14 00:42:28;;;;;;;5.78;3.80;;;;;;;18.64;44.24;101326.50;5031685;28;20078;-81
2023/06/14 00:44:54;;;;;;;6.43;3.90;;;;;;;18.64;43.95;101326.50;5031656;28;20037;-81
2023/06/14 00:47:20;;;;;;;7.03;3.88;;;;;;;18.59;43.71;101334.63;5032304;28;20037;-81
2023/06/14 00:49:47;;;;;;;6.05;3.55;;;;;;;18.52;44.11;101330.59;5032362;28;20029;-81
2023/06/14 00:52:14;;;;;;;5.85;3.75;;;;;;;18.47;44.11;101332.63;5032379;28;20032;-81
2023/06/14 00:54:41;;;;;;;6.32;3.88;;;;;;;18.44;43.78;101330.16;5030368;28;20040;-81
2023/06/14 00:57:07;;;;;;;6.13;3.65;;;;;;;18.40;44.38;101326.81;5032291;28;20052;-81
2023/06/14 00:59:32;;;;;;;5.65;3.63;;;;;;;18.32;42.90;101327.22;5032034;28;20025;-81
2023/06/14 01:01:58;;;;;;;6.53;3.72;;;;;;;18.29;44.34;101335.25;5032176;28;20025;-81
2023/06/14 01:04:23;;;;;;;6.43;3.63;;;;;;;18.26;43.84;101339.84;5031453;28;20093;-81
2023/06/14 01:07:29;;;;;;;6.15;3.80;;;;;;;18.23;43.29;101332.09;5032414;28;20423;-81
2023/06/14 01:10:08;;;;;;;6.05;3.63;;;;;;;18.17;43.22;101338.50;5031035;28;20029;-81
2023/06/14 01:12:49;;;;;;;4.95;3.40;;;;;;;18.12;44.88;101338.75;5031669;28;20025;-81
2023/06/14 01:15:15;;;;;;;5.18;3.30;;;;;;;18.11;45.86;101334.41;5030028;28;20085;-81
2023/06/14 01:17:43;;;;;;;5.35;3.38;;;;;;;18.10;45.43;101332.72;5031340;28;20377;-81
2023/06/14 01:20:14;;;;;;;5.53;3.33;;;;;;;18.08;44.02;101331.94;5031633;28;20599;-81
2023/06/14 01:22:52;;;;;;;6.53;3.50;;;;;;;18.11;42.50;101330.91;5031566;28;20082;-81
2023/06/14 01:25:20;;;;;;;4.80;3.30;;;;;;;18.07;43.59;101334.66;5030946;28;20507;-81
2023/06/14 01:27:48;;;;;;;6.03;3.40;;;;;;;18.02;44.34;101335.72;5031975;28;20021;-81
2023/06/14 01:30:14;;;;;;;6.05;3.30;;;;;;;18.02;46.35;101337.47;5031565;28;20144;-81
2023/06/14 01:32:39;;;;;;;5.00;3.63;;;;;;;17.98;46.92;101334.16;5031935;28;20029;-81
2023/06/14 01:35:05;;;;;;;6.22;3.38;;;;;;;17.90;46.05;101331.03;5029427;28;20420;-81
2023/06/14 01:37:31;;;;;;;5.40;3.10;;;;;;;17.85;45.41;101333.88;5032450;28;20026;-81
2023/06/14 01:39:57;;;;;;;4.75;3.40;;;;;;;17.80;47.16;101335.88;5030935;28;20026;-82
2023/06/14 01:42:23;;;;;;;7.78;3.33;;;;;;;17.76;45.80;101334.31;5031839;28;20084;-81
2023/06/14 01:44:50;;;;;;;5.25;3.05;;;;;;;17.73;49.29;101337.97;5031384;28;20094;-81
2023/06/14 01:47:15;;;;;;;6.38;3.28;;;;;;;17.69;46.48;101338.16;5030888;28;20425;-81
2023/06/14 01:49:40;;;;;;;5.32;3.10;;;;;;;17.66;46.11;101341.81;5030983;28;20171;-81
2023/06/14 01:52:09;;;;;;;4.78;3.10;;;;;;;17.62;45.25;101332.34;5031085;28;20531;-81
2023/06/14 01:54:37;;;;;;;5.25;3.30;;;;;;;17.60;47.33;101339.47;5030086;28;20033;-81
2023/06/14 01:57:03;;;;;;;5.05;3.10;;;;;;;17.56;46.70;101337.91;5033462;28;20049;-81
2023/06/14 01:59:28;;;;;;;4.40;2.95;;;;;;;17.54;44.82;101337.13;5034515;28;20067;-81
2023/06/14 02:01:53;;;;;;;5.05;3.08;;;;;;;17.51;46.53;101335.47;5035380;28;20025;-81
2023/06/14 02:04:19;;;;;;;6.82;3.38;;;;;;;17.52;46.31;101337.19;5035689;28;20025;-81
2023/06/14 02:06:44;;;;;;;6.50;3.10;;;;;;;17.52;45.69;101333.72;5035353;28;20026;-81
2023/06/14 02:09:09;;;;;;;5.70;3.00;;;;;;;17.50;45.75;101338.19;5034933;28;20042;-81
2023/06/14 02:11:34;;;;;;;6.70;3.35;;;;;;;17.45;48.25;101331.38;5034839;28;20147;-81
2023/06/14 02:14:01;;;;;;;5.80;2.97;;;;;;;17.41;46.40;101334.22;5035376;28;20033;-81
2023/06/14 02:16:28;;;;;;;4.28;2.97;;;;;;;17.37;46.27;101333.53;5034078;28;20021;-81
2023/06/14 02:18:53;;;;;;;6.55;3.17;;;;;;;17.34;47.63;101335.41;5035207;28;20056;-81
2023/06/14 02:21:18;;;;;;;6.78;2.75;;;;;;;17.29;48.16;101336.50;5034175;28;20449;-81
2023/06/14 02:23:44;;;;;;;4.93;2.78;;;;;;;17.27;46.80;101334.84;5042902;28;20025;-82
2023/06/14 02:26:09;;;;;;;5.53;2.85;;;;;;;17.21;46.39;101332.53;5041511;28;20108;-81
2023/06/14 02:28:35;;;;;;;5.38;2.92;;;;;;;17.21;47.11;101337.78;5035152;28;20030;-81
2023/06/14 02:31:01;;;;;;;5.55;3.10;;;;;;;17.18;48.89;101337.91;5041548;28;20179;-81
2023/06/14 02:33:26;;;;;;;5.03;3.00;;;;;;;17.16;47.07;101339.75;5041218;28;20477;-82
2023/06/14 02:35:52;;;;;;;8.23;3.17;;;;;;;17.12;46.71;101344.31;5039410;28;20428;-81
2023/06/14 02:38:18;;;;;;;4.55;2.65;;;;;;;17.09;47.99;101340.03;5035883;28;20107;-81
2023/06/14 02:40:43;;;;;;;4.65;2.88;;;;;;;17.08;46.94;101345.38;5040593;28;20117;-81
2023/06/14 02:43:08;;;;;;;3.78;2.75;;;;;;;17.07;48.85;101347.16;5034931;28;20052;-81
2023/06/14 02:45:34;;;;;;;5.93;2.75;;;;;;;17.05;49.48;101343.75;5034909;28;20079;-81
2023/06/14 02:47:59;;;;;;;6.30;2.97;;;;;;;17.02;47.68;101348.25;5034110;28;20083;-81
2023/06/14 02:50:25;;;;;;;6.90;2.90;;;;;;;17.00;50.23;101345.72;5034739;28;20017;-81
2023/06/14 02:52:50;;;;;;;6.13;3.08;;;;;;;16.98;48.08;101353.69;5034049;28;20025;-81
2023/06/14 02:55:16;;;;;;;5.47;2.88;;;;;;;16.95;46.09;101342.44;5035454;28;20045;-82
2023/06/14 02:57:41;;;;;;;7.90;3.30;;;;;;;16.97;45.99;101348.47;5032675;28;20049;-81
2023/06/14 03:00:09;;;;;;;6.15;3.00;;;;;;;16.94;46.79;101352.06;5034204;28;20395;-81
2023/06/14 03:02:35;;;;;;;5.20;3.10;;;;;;;16.92;48.33;101353.03;5032921;28;20032;-81
2023/06/14 03:05:01;;;;;;;5.05;2.92;;;;;;;16.88;48.18;101346.22;5033666;28;20022;-81
2023/06/14 03:07:27;;;;;;;4.55;2.90;;;;;;;16.86;46.92;101355.97;5035933;28;20028;-81
2023/06/14 03:09:52;;;;;;;6.13;3.45;;;;;;;16.84;49.22;101364.75;5031451;28;20086;-81
2023/06/14 03:12:18;;;;;;;5.85;2.85;;;;;;;16.81;51.21;101356.16;5034532;28;20365;-81
2023/06/14 03:14:46;;;;;;;5.60;3.17;;;;;;;16.76;50.32;101356.34;5034585;28;20021;-81
2023/06/14 03:17:11;;;;;;;3.97;2.85;;;;;;;16.74;50.43;101359.97;5032905;28;20017;-81
2023/06/14 03:19:37;;;;;;;5.85;2.70;;;;;;;16.71;49.22;101360.97;5033575;28;20083;-81
2023/06/14 03:22:02;;;;;;;7.50;2.90;;;;;;;16.68;50.44;101358.47;5031890;28;20029;-81
2023/06/14 03:24:28;;;;;;;5.47;2.90;;;;;;;16.67;49.14;101364.63;5033772;28;20018;-81
2023/06/14 03:26:54;;;;;;;7.47;2.95;;;;;;;16.63;48.30;101363.06;5032968;28;20472;-81
2023/06/14 03:29:19;;;;;;;5.93;2.75;;;;;;;16.57;49.43;101369.44;5032617;28;20063;-82
2023/06/14 03:32:02;;;;;;;5.82;2.80;;;;;;;16.59;48.96;101371.97;5031794;28;20437;-81
2023/06/14 03:34:28;;;;;;;6.32;2.90;;;;;;;16.55;52.31;101368.63;5032890;28;20029;-81
2023/06/14 03:36:53;;;;;;;5.22;2.72;;;;;;;16.53;49.41;101363.47;5031849;28;20059;-81
2023/06/14 03:39:19;;;;;;;5.18;2.67;;;;;;;16.51;49.46;101375.81;5032766;28;20192;-81
2023/06/14 03:41:45;;;;;;;5.40;3.00;;;;;;;16.52;51.37;101369.63;5030897;28;20022;-81
2023/06/14 03:44:10;;;;;;;4.40;2.83;;;;;;;16.53;49.87;101373.09;5032853;28;20034;-81
2023/06/14 03:46:35;;;;;;;6.53;3.25;;;;;;;16.52;49.14;101377.50;5032887;28;20029;-81
2023/06/14 03:49:02;;;;;;;5.18;2.75;;;;;;;16.54;49.71;101378.31;5033238;28;20044;-81
2023/06/14 03:51:28;;;;;;;6.85;2.85;;;;;;;16.54;50.70;101385.31;5032122;28;20014;-81
2023/06/14 03:53:54;;;;;;;5.53;2.97;;;;;;;16.52;49.32;101381.91;5033038;28;20071;-81
2023/06/14 03:56:19;;;;;;;4.20;2.58;;;;;;;16.50;49.43;101387.22;5032129;28;20032;-81
2023/06/14 03:58:45;;;;;;;4.95;2.67;;;;;;;16.52;48.26;101388.03;5032969;28;20018;-81
2023/06/14 04:01:11;;;;;;;7.03;3.17;;;;;;;16.52;48.47;101387.16;5032781;28;20029;-81
2023/06/14 04:03:37;;;;;;;6.50;2.80;;;;;;;16.52;48.26;101382.75;5032034;28;20427;-81
2023/06/14 04:06:04;;;;;;;5.05;2.95;;;;;;;16.56;47.99;101387.91;5031431;28;20029;-81
2023/06/14 04:08:30;;;;;;;4.78;2.97;;;;;;;16.54;48.04;101388.81;5032134;28;20026;-81
2023/06/14 04:10:55;;;;;;;5.18;2.90;;;;;;;16.57;48.29;101389.59;5032467;28;20022;-81
2023/06/14 04:13:20;;;;;;;5.43;2.90;;;;;;;16.59;47.82;101393.00;5032940;28;20029;-81
2023/06/14 04:15:45;;;;;;;4.22;2.88;;;;;;;16.61;47.40;101393.78;5032576;28;20017;-81
2023/06/14 04:18:12;;;;;;;4.18;2.60;;;;;;;16.64;47.80;101396.28;5033213;28;20388;-81
2023/06/14 04:20:39;;;;;;;4.97;2.80;;;;;;;16.66;48.69;101394.44;5032351;28;20120;-81
2023/06/14 04:23:15;;;;;;;4.47;2.72;;;;;;;16.67;47.59;101397.00;5032958;28;20028;-81
2023/06/14 04:25:40;;;;;;;8.05;2.90;;;;;;;16.70;47.47;101396.03;5031905;28;20036;-81
2023/06/14 04:28:09;;;;;;;5.18;3.00;;;;;;;16.72;47.61;101391.56;5030136;28;20033;-81
2023/06/14 04:30:35;;;;;;;5.47;2.80;;;;;;;16.73;47.76;101395.03;5032440;28;20063;-81
2023/06/14 04:33:00;;;;;;;4.80;2.85;;;;;;;16.73;47.87;101390.66;5032259;28;20053;-82
2023/06/14 04:35:27;;;;;;;5.45;2.95;;;;;;;16.76;47.88;101398.38;5031772;28;20022;-81
2023/06/14 04:37:53;;;;;;;4.07;2.53;;;;;;;16.80;47.89;101402.59;5032707;28;20051;-81
2023/06/14 04:40:18;;;;;;;4.97;2.72;;;;;;;16.84;47.90;101409.44;5032056;28;20029;-81
2023/06/14 04:42:44;;;;;;;5.25;2.92;;;;;;;16.87;48.08;101403.19;5030848;28;20033;-81
2023/06/14 04:45:10;;;;;;;6.18;2.70;;;;;;;16.89;48.11;101405.75;5031575;28;20413;-81
2023/06/14 04:47:37;;;;;;;6.80;2.70;;;;;;;16.90;47.92;101410.94;5031136;28;20041;-81
2023/06/14 04:50:03;;;;;;;5.47;3.03;;;;;;;16.94;48.38;101409.03;5031280;28;20400;-81
2023/06/14 04:52:30;;;;;;;6.32;2.88;;;;;;;16.97;48.32;101409.78;5032922;28;20019;-82
2023/06/14 04:54:55;;;;;;;3.92;2.53;;;;;;;17.01;49.86;101410.50;5031413;28;20028;-82
2023/06/14 04:57:22;;;;;;;4.85;2.95;;;;;;;17.05;48.67;101413.84;5032130;28;20046;-81
2023/06/14 04:59:48;;;;;;;4.85;2.90;;;;;;;17.11;49.85;101413.59;5030939;28;20047;-82
2023/06/14 05:02:14;;;;;;;5.22;2.85;;;;;;;17.14;48.82;101416.09;5029761;28;20038;-81
2023/06/14 05:04:39;;;;;;;5.25;2.70;;;;;;;17.19;49.22;101421.97;5032214;28;20096;-81
2023/06/14 05:07:12;;;;;;;4.20;2.83;;;;;;;17.21;48.67;101427.19;5031883;28;20033;-81
2023/06/14 05:09:37;;;;;;;4.80;2.90;;;;;;;17.26;48.58;101419.91;5031691;28;20032;-81
2023/06/14 05:12:03;;;;;;;5.38;2.97;;;;;;;17.30;48.48;101421.50;5030881;28;20025;-82
2023/06/14 05:14:29;;;;;;;4.80;2.97;;;;;;;17.36;48.68;101421.22;5030986;28;20104;-82
2023/06/14 05:16:54;;;;;;;5.18;3.05;;;;;;;17.42;48.48;101420.09;5030916;28;20101;-82
2023/06/14 05:19:20;;;;;;;4.28;3.00;;;;;;;17.47;47.76;101433.03;5030563;28;20025;-82
2023/06/14 05:21:47;;;;;;;5.85;3.00;;;;;;;17.52;48.28;101431.06;5031006;28;20439;-82
2023/06/14 05:24:12;;;;;;;4.40;2.83;;;;;;;17.58;48.12;101430.78;5031597;28;20026;-82
2023/06/14 05:26:37;;;;;;;5.28;3.13;;;;;;;17.64;47.48;101432.28;5030904;28;20362;-82
2023/06/14 05:29:03;;;;;;;6.57;2.90;;;;;;;17.70;48.16;101426.72;5030158;28;20397;-82
2023/06/14 05:31:28;;;;;;;4.47;2.80;;;;;;;17.76;47.60;101434.31;5027984;28;20040;-82
2023/06/14 05:33:54;;;;;;;5.82;3.00;;;;;;;17.79;47.82;101435.94;5030725;28;20083;-82
2023/06/14 05:36:21;;;;;;;5.15;3.00;;;;;;;17.89;47.49;101439.88;5033021;28;20048;-83
2023/06/14 05:38:46;;;;;;;6.10;2.80;;;;;;;17.93;47.76;101436.19;5034449;28;20022;-82
2023/06/14 05:41:12;;;;;;;7.72;3.00;;;;;;;17.99;46.82;101445.59;5034294;28;20025;-82
2023/06/14 05:43:37;;;;;;;5.32;2.88;;;;;;;18.06;47.12;101441.72;5030493;28;20032;-81
2023/06/14 05:46:03;;;;;;;3.55;2.53;;;;;;;18.11;47.57;101452.03;5031622;28;20056;-80
2023/06/14 05:48:28;;;;;;;4.45;3.00;;;;;;;18.18;46.65;101450.81;5031582;28;20104;-81
2023/06/14 05:50:54;;;;;;;6.00;3.25;;;;;;;18.24;46.30;101454.94;5030869;28;20025;-82
2023/06/14 05:53:19;;;;;;;4.75;2.58;;;;;;;18.27;46.58;101460.94;5030382;28;20079;-82
2023/06/14 05:55:44;;;;;;;4.35;2.80;;;;;;;18.32;45.66;101464.19;5026900;28;20498;-84
2023/06/14 05:58:10;;;;;;;4.13;2.80;;;;;;;18.38;46.10;101460.38;5029170;28;20128;-83
2023/06/14 06:00:35;;;;;;;6.00;2.65;;;;;;;18.44;45.41;101461.91;5029080;28;20048;-84
2023/06/14 06:03:01;;;;;;;4.43;2.60;;;;;;;18.50;46.10;101469.47;5029224;28;20503;-84
2023/06/14 06:05:26;;;;;;;4.90;3.00;;;;;;;18.59;47.12;101468.16;5029115;28;20055;-80
2023/06/14 06:07:51;;;;;;;4.78;2.92;;;;;;;18.65;50.06;101460.81;5026121;28;20029;-83
2023/06/14 06:10:17;;;;;;;4.63;2.55;;;;;;;18.71;46.11;101464.91;5029584;28;20070;-84
2023/06/14 06:12:42;;;;;;;9.63;2.60;;;;;;;18.77;47.29;101467.25;5029315;28;20538;-85
2023/06/14 06:15:11;;;;;;;4.70;2.80;;;;;;;18.84;46.76;101467.78;5031469;28;20104;-84
2023/06/14 06:17:37;;;;;;;4.95;2.83;;;;;;;18.91;45.37;101468.31;5028845;28;20134;-80
2023/06/14 06:20:03;;;;;;;4.03;2.67;;;;;;;18.98;46.27;101468.88;5029815;28;20102;-84
2023/06/14 06:22:28;;;;;;;4.18;2.95;;;;;;;19.04;47.19;101471.22;5030288;28;20105;-85
2023/06/14 06:24:54;;;;;;;4.60;2.80;;;;;;;19.09;46.46;101472.69;5037150;28;20051;-83
2023/06/14 06:27:20;;;;;;;4.47;2.35;;;;;;;19.14;48.16;101475.06;5029011;28;20033;-84
2023/06/14 06:29:45;;;;;;;4.35;2.63;;;;;;;19.22;48.16;101475.56;5028122;28;20112;-84
2023/06/14 06:32:11;;;;;;;4.70;2.63;;;;;;;19.30;46.58;101476.94;5029828;28;20449;-83
2023/06/14 06:34:37;;;;;;;3.40;2.60;;;;;;;19.36;46.08;101484.50;5029594;28;20021;-84
2023/06/14 06:37:02;;;;;;;5.05;2.70;;;;;;;19.42;45.11;101481.56;5029797;28;20033;-81
2023/06/14 06:39:27;;;;;;;4.15;2.90;;;;;;;19.44;44.03;101489.38;5026685;28;20029;-80
2023/06/14 06:41:53;;;;;;;6.15;2.70;;;;;;;19.47;44.69;101487.44;5025525;28;20033;-81
2023/06/14 06:44:18;;;;;;;4.82;2.67;;;;;;;19.53;47.16;101492.41;5031285;28;20079;-83
2023/06/14 06:46:43;;;;;;;7.50;2.67;;;;;;;19.60;47.23;101494.72;5028192;28;20118;-83
2023/06/14 06:49:11;;;;;;;5.63;2.63;;;;;;;19.65;44.51;101493.53;5033311;28;20026;-82
2023/06/14 06:51:37;;;;;;;3.70;2.78;;;;;;;19.71;48.67;101503.78;5033197;28;20486;-83
2023/06/14 06:54:02;;;;;;;5.50;2.50;;;;;;;19.78;47.24;101506.94;5050541;28;20029;-82
2023/06/14 06:56:28;;;;;;;3.20;2.50;;;;;;;19.84;47.38;101503.94;5031676;28;20522;-84
2023/06/14 06:58:56;;;;;;;4.88;2.40;;;;;;;19.90;48.44;101500.13;5032366;28;20029;-83
2023/06/14 07:01:21;;;;;;;4.53;2.60;;;;;;;19.94;44.07;101508.75;5033273;28;20072;-84
2023/06/14 07:03:47;;;;;;;6.72;2.72;;;;;;;19.99;46.22;101504.06;5033551;28;20488;-83
2023/06/14 07:06:13;;;;;;;3.45;2.70;;;;;;;20.06;46.75;101507.25;5030705;28;20360;-83
2023/06/14 07:08:38;;;;;;;5.60;2.70;;;;;;;20.08;44.05;101507.97;5033150;28;20472;-81
2023/06/14 07:11:05;;;;;;;5.43;2.50;;;;;;;20.12;44.27;101513.03;5032966;28;20029;-80
2023/06/14 07:13:30;;;;;;;4.22;2.75;;;;;;;20.18;46.14;101519.75;5033865;28;20025;-80
2023/06/14 07:15:58;;;;;;;3.85;2.47;;;;;;;20.24;44.84;101523.84;5032312;28;20030;-80
2023/06/14 07:18:24;;;;;;;2.85;2.40;;;;;;;20.30;45.46;101523.50;5031170;28;20036;-82
2023/06/14 07:20:50;;;;;;;4.40;2.47;;;;;;;20.34;45.41;101516.25;5033809;28;20033;-83
2023/06/14 07:23:15;;;;;;;3.78;2.53;;;;;;;20.39;45.37;101517.69;5032694;28;20026;-83
2023/06/14 07:25:40;;;;;;;3.70;2.42;;;;;;;20.45;44.93;101521.78;5031451;28;20029;-82
2023/06/14 07:28:06;;;;;;;5.63;2.58;;;;;;;20.50;43.10;101522.38;5032590;28;20018;-80
2023/06/14 07:30:31;;;;;;;4.22;2.60;;;;;;;20.56;43.94;101523.81;5031385;28;20349;-79
2023/06/14 07:32:57;;;;;;;3.58;2.45;;;;;;;20.60;42.57;101517.41;5028027;28;20026;-79
2023/06/14 07:35:22;;;;;;;3.00;2.17;;;;;;;20.65;42.91;101525.94;5028341;28;20040;-80
2023/06/14 07:37:48;;;;;;;3.50;2.30;;;;;;;20.71;43.79;101525.56;5030715;28;20066;-79
2023/06/14 07:40:13;;;;;;;3.45;2.10;;;;;;;20.75;41.69;101528.91;5029083;28;20031;-81
2023/06/14 07:42:39;;;;;;;4.57;2.38;;;;;;;20.82;43.95;101534.72;5031889;28;20108;-80
2023/06/14 07:45:05;;;;;;;7.38;2.47;;;;;;;20.85;40.68;101531.88;5027961;28;20029;-81
2023/06/14 07:47:31;;;;;;;5.70;2.60;;;;;;;20.88;43.88;101531.69;5028843;28;20041;-82
2023/06/14 07:49:56;;;;;;;3.30;2.17;;;;;;;20.93;42.59;101545.53;5029357;28;20025;-80
2023/06/14 07:52:21;;;;;;;4.07;2.20;;;;;;;20.97;42.28;101541.75;5033825;28;20417;-80
2023/06/14 07:54:47;;;;;;;3.95;2.60;;;;;;;21.01;41.63;101548.53;5031530;28;20033;-80
2023/06/14 07:57:12;;;;;;;4.30;2.28;;;;;;;21.04;40.99;101548.38;5031972;28;20045;-80
2023/06/14 07:59:37;;;;;;;4.45;2.60;;;;;;;21.08;43.77;101555.19;5031614;28;20025;-80
2023/06/14 08:02:03;;;;;;;4.05;2.30;;;;;;;21.10;40.21;101557.75;5033186;28;20056;-80
2023/06/14 08:04:29;;;;;;;4.22;2.30;;;;;;;21.14;40.38;101548.69;5028135;28;20999;-81
2023/06/14 08:06:54;;;;;;;4.15;2.30;;;;;;;21.19;43.39;101557.22;5029458;28;20167;-82
2023/06/14 08:09:20;;;;;;;3.08;2.00;;;;;;;21.25;41.57;101555.16;5028909;28;20036;-79
2023/06/14 08:11:45;;;;;;;3.20;2.08;;;;;;;21.30;43.15;101559.22;5030988;28;20043;-80
2023/06/14 08:14:11;;;;;;;4.60;2.08;;;;;;;21.37;42.00;101560.53;5033947;28;20108;-85
2023/06/14 08:16:37;;;;;;;2.67;1.80;;;;;;;21.42;40.71;101551.47;5029223;28;20056;-81
2023/06/14 08:19:02;;;;;;;3.55;2.10;;;;;;;21.46;41.27;101558.28;5030062;28;20049;-81
2023/06/14 08:21:28;;;;;;;3.47;1.92;;;;;;;21.49;38.54;101555.47;5029101;28;20017;-81
2023/06/14 08:23:54;;;;;;;3.83;1.90;;;;;;;21.53;38.86;101554.31;5034086;28;20103;-80
2023/06/14 08:26:20;;;;;;;2.90;1.80;;;;;;;21.57;39.11;101555.84;5030197;28;20100;-81
2023/06/14 08:28:46;;;;;;;3.75;2.00;;;;;;;21.63;40.67;101554.63;5027957;28;20111;-82
2023/06/14 08:31:11;;;;;;;2.92;1.80;;;;;;;21.65;38.11;101558.91;5029040;28;20476;-83
2023/06/14 08:33:36;;;;;;;5.22;1.60;;;;;;;21.70;39.98;101555.09;5031883;28;20495;-80
2023/06/14 08:36:02;;;;;;;2.72;1.70;;;;;;;21.68;37.33;101553.44;5027888;28;20079;-83
2023/06/14 08:38:27;;;;;;;3.45;1.77;;;;;;;21.72;40.42;101556.72;5041774;28;20030;-83
2023/06/14 08:40:58;;;;;;;2.80;1.63;;;;;;;21.77;37.72;101552.00;5030215;28;20013;-81
2023/06/14 08:43:23;;;;;;;2.20;1.40;;;;;;;21.81;35.73;101552.66;5029701;28;20017;-81
2023/06/14 08:45:51;;;;;;;2.22;1.50;;;;;;;21.83;35.86;101551.59;5035204;28;20031;-80
2023/06/14 08:48:20;;;;;;;3.90;1.40;;;;;;;21.86;38.20;101550.59;5030435;28;20122;-81
2023/06/14 08:50:47;;;;;;;3.47;1.35;;;;;;;21.87;35.56;101546.97;5029107;28;20079;-81
2023/06/14 08:53:20;;;;;;;1.67;1.40;;;;;;;21.91;35.37;101558.25;5028595;28;20032;-81
2023/06/14 08:55:45;;;;;;;1.95;1.20;;;;;;;21.94;35.28;101553.59;5028632;28;20116;-80
2023/06/14 08:58:14;;;;;;;1.50;0.98;;;;;;;22.00;34.30;101546.22;5036299;28;20136;-80
2023/06/14 09:00:41;;;;;;;2.28;1.23;;;;;;;22.07;33.90;101555.47;5029442;28;20074;-81
2023/06/14 09:03:13;;;;;;;2.83;1.33;;;;;;;22.09;34.42;101548.28;5044248;28;20528;-81
2023/06/14 09:05:38;;;;;;;1.33;1.05;;;;;;;22.14;36.83;101554.13;5030694;28;20502;-81
2023/06/14 09:08:05;;;;;;;1.75;1.30;;;;;;;22.14;35.82;101549.66;5027845;28;20039;-82
2023/06/14 09:10:33;;;;;;;1.10;1.00;;;;;;;22.14;34.96;101556.78;5032987;28;20107;-81
2023/06/14 09:13:00;;;;;;;2.58;1.17;;;;;;;22.14;34.81;101554.13;5026879;28;20025;-82
2023/06/14 09:15:25;;;;;;;2.20;0.90;;;;;;;22.20;34.32;101561.72;5030555;28;20108;-80
2023/06/14 09:17:51;;;;;;;1.58;0.90;;;;;;;22.25;32.16;101562.25;5029371;28;20112;-81
2023/06/14 09:20:18;;;;;;;1.10;1.00;;;;;;;22.29;36.11;101563.75;5028581;28;20115;-81
2023/06/14 09:22:44;;;;;;;1.38;1.05;;;;;;;22.34;32.57;101565.28;5028409;28;20415;-81
2023/06/14 09:25:09;;;;;;;1.42;1.10;;;;;;;22.39;33.71;101557.84;5029287;28;20029;-81
2023/06/14 09:27:35;;;;;;;1.85;0.90;;;;;;;22.46;33.53;101563.66;5027234;28;20118;-81
2023/06/14 09:30:02;;;;;;;1.70;1.10;;;;;;;22.45;32.77;101557.50;5028862;28;20021;-81
2023/06/14 09:32:27;;;;;;;2.15;1.05;;;;;;;22.43;35.30;101554.09;5029084;28;20025;-81
2023/06/14 09:34:53;;;;;;;1.30;1.13;;;;;;;22.45;32.46;101556.66;5032598;28;20067;-81
2023/06/14 09:37:32;;;;;;;2.08;1.00;;;;;;;22.49;32.72;101564.31;5031695;28;20029;-81
2023/06/14 09:39:58;;;;;;;2.10;1.00;;;;;;;22.51;30.51;101562.41;5026456;28;20033;-81
2023/06/14 09:42:25;;;;;;;2.78;1.30;;;;;;;22.52;32.13;101564.13;5027596;28;20241;-81
2023/06/14 09:44:52;;;;;;;1.63;1.10;;;;;;;22.52;32.43;101564.13;5031261;28;20029;-82
2023/06/14 09:47:18;;;;;;;2.08;1.10;;;;;;;22.54;32.08;101556.03;5040543;28;20028;-81
2023/06/14 09:49:44;;;;;;;2.92;1.23;;;;;;;22.60;35.70;101566.25;5031046;28;20029;-83
2023/06/14 09:52:13;;;;;;;2.88;1.20;;;;;;;22.61;32.62;101553.84;5029318;28;20032;-83
2023/06/14 09:54:42;;;;;;;1.80;1.40;;;;;;;22.62;33.91;101566.16;5029085;28;20037;-81
2023/06/14 09:57:11;;;;;;;2.30;1.20;;;;;;;22.62;34.73;101561.72;5023772;28;20041;-83
2023/06/14 09:59:41;;;;;;;1.55;1.40;;;;;;;22.64;32.99;101564.25;5031596;28;20025;-83
2023/06/14 10:02:27;;;;;;;1.50;1.27;;;;;;;22.65;33.85;101553.53;5030524;28;20029;-83
2023/06/14 10:05:11;;;;;;;2.72;1.30;;;;;;;22.69;35.42;101559.50;5033364;28;20025;-82
2023/06/14 10:07:51;;;;;;;3.03;1.30;;;;;;;22.73;33.89;101560.97;5031330;28;20236;-83
2023/06/14 10:10:16;;;;;;;2.60;1.30;;;;;;;22.70;34.01;101561.22;5026863;28;20026;-84
2023/06/14 10:12:42;;;;;;;3.70;1.40;;;;;;;22.69;36.72;101557.69;5030235;28;20424;-84
2023/06/14 10:15:17;;;;;;;1.90;1.30;;;;;;;22.69;36.12;101556.84;5027663;28;20021;-83
2023/06/14 10:17:57;;;;;;;2.58;1.25;;;;;;;22.74;34.28;101557.38;5028046;28;20116;-81
2023/06/14 10:20:35;;;;;;;2.35;1.30;;;;;;;22.80;34.70;101549.03;5029406;28;20033;-82
2023/06/14 10:23:10;;;;;;;3.42;1.40;;;;;;;22.81;34.39;101550.72;5030669;28;20038;-82
2023/06/14 10:25:35;;;;;;;2.58;1.17;;;;;;;22.75;32.61;101553.78;5032829;28;20365;-83
2023/06/14 10:28:17;;;;;;;1.83;1.25;;;;;;;22.75;34.42;101553.78;5032042;28;20083;-82
2023/06/14 10:31:18;;;;;;;1.80;1.30;;;;;;;22.77;34.43;101551.88;5030904;28;20029;-82
2023/06/14 10:33:59;;;;;;;2.57;1.30;;;;;;;22.79;35.96;101554.44;5009924;28;20145;-82
2023/06/14 10:36:31;;;;;;;2.10;1.30;;;;;;;22.83;33.96;101551.47;5032732;28;20312;-82
2023/06/14 10:38:58;;;;;;;3.17;1.30;;;;;;;22.84;35.17;101545.22;5028710;28;20029;-82
2023/06/14 10:41:27;;;;;;;2.58;1.27;;;;;;;22.87;35.29;101552.97;5030477;28;20476;-82
2023/06/14 10:43:52;;;;;;;3.03;1.27;;;;;;;22.91;34.43;101555.41;5030076;28;20116;-82
2023/06/14 10:46:21;;;;;;;4.25;1.55;;;;;;;22.90;33.35;101562.53;5031113;28;20124;-82
2023/06/14 10:48:46;;;;;;;3.55;1.20;;;;;;;22.91;33.68;101558.91;5036780;28;20033;-82
2023/06/14 10:51:22;;;;;;;2.58;1.30;;;;;;;22.93;33.29;101558.81;5032785;28;20025;-82
2023/06/14 10:53:49;;;;;;;1.52;1.35;;;;;;;22.94;32.82;101552.56;5030120;28;20049;-82
2023/06/14 10:56:28;;;;;;;2.03;1.38;;;;;;;22.96;34.75;101542.69;5031831;28;20037;-82
2023/06/14 10:58:53;;;;;;;2.60;1.20;;;;;;;23.01;33.72;101551.19;5030734;28;20036;-82
2023/06/14 11:01:45;;;;;;;3.13;1.60;;;;;;;23.01;33.39;101549.38;5034438;28;20021;-83
2023/06/14 11:04:11;;;;;;;1.67;1.10;;;;;;;22.98;33.85;101549.56;5030587;28;20092;-82
2023/06/14 11:06:45;;;;;;;2.13;1.10;;;;;;;22.97;33.88;101549.69;5031822;28;20038;-81
2023/06/14 11:09:36;;;;;;;1.83;1.15;;;;;;;22.95;33.83;101549.81;5034219;28;20441;-82
2023/06/14 11:12:01;;;;;;;1.55;1.05;;;;;;;22.96;35.53;101561.25;5029778;28;20037;-83
2023/06/14 11:14:30;;;;;;;2.58;1.00;;;;;;;22.99;34.96;101555.75;5031569;28;20507;-82
2023/06/14 11:16:56;;;;;;;2.83;1.20;;;;;;;23.00;34.83;101558.28;5033755;28;20767;-82
2023/06/14 11:19:21;;;;;;;2.50;1.20;;;;;;;23.04;34.11;101553.66;5031107;28;20026;-83
2023/06/14 11:21:48;;;;;;;3.95;1.30;;;;;;;23.03;37.41;101557.25;5030410;28;20029;-83
2023/06/14 11:24:13;;;;;;;2.83;1.20;;;;;;;23.03;35.61;101551.94;5027364;28;20436;-82